Terminal Aerodrome Forecast
Issued by NWS

Home | Current Version | Previous Version | Text Only | Print | Product List | Glossary On
Versions: 1 2 3 4 5 6 7 8 9 10 11 12 13 14 15 16 17 18 19 20 21
000
FTUS42 KFFC 030523
TAFFTY
TAF
KFTY 030523Z 0306/0406 00000KT P6SM SCT050 BKN090
     FM030800 00000KT 5SM BR SCT009 BKN015
     FM031000 24004KT 6SM BR BKN008
     FM031400 27006KT P6SM OVC015 PROB30 0315/0317 -SHRA OVC030
     FM031700 30010KT P6SM BKN050
     FM040200 30005KT P6SM SCT100=

USA.gov is the U.S. government's official web portal to all federal, state and local government web resources and services.